Time;durP1;ratioP1;P1;durP2;ratioP2;P2;SDS_P1;SDS_P2;PMS_P1;PMS_P2;Temp;Humidity;BMP_temperature;BMP_pressure;BME280_temperature;BME280_humidity;BME280_pressure;Samples;Min_cycle;Max_cycle;Signal;HPM_P1;HPM_P2
2022/03/11 00:00:49;;;;;;;;;12.50;6.00;;;;;8.96;40.73;101702.69;5089944;28;10726;-72
2022/03/11 00:03:18;;;;;;;;;9.50;7.50;;;;;8.90;41.28;101696.03;5073493;28;10590;-73
2022/03/11 00:05:45;;;;;;;;;5.00;5.00;;;;;8.73;40.92;101691.53;5070275;28;10772;-73
2022/03/11 00:08:12;;;;;;;;;14.00;10.75;;;;;8.68;41.04;101697.41;5069375;28;10801;-72
2022/03/11 00:10:38;;;;;;;;;11.50;11.50;;;;;8.59;41.32;101696.47;5069187;28;10597;-73
2022/03/11 00:13:05;;;;;;;;;7.25;7.00;;;;;8.62;41.84;101696.16;5068202;28;11518;-72
2022/03/11 00:15:31;;;;;;;;;7.50;7.50;;;;;8.58;41.84;101688.53;5069823;28;10725;-73
2022/03/11 00:17:58;;;;;;;;;9.00;8.50;;;;;8.54;42.03;101701.50;5063556;28;10712;-72
2022/03/11 00:20:25;;;;;;;;;7.25;7.25;;;;;8.53;42.16;101686.31;5070279;28;10723;-73
2022/03/11 00:22:53;;;;;;;;;13.00;12.00;;;;;8.44;42.04;101683.69;5068897;28;10737;-72
2022/03/11 00:25:20;;;;;;;;;17.25;11.50;;;;;8.39;42.21;101684.13;5075301;28;11751;-73
2022/03/11 00:27:47;;;;;;;;;16.00;12.00;;;;;8.45;42.10;101683.53;5069661;28;10836;-73
2022/03/11 00:30:14;;;;;;;;;11.25;9.00;;;;;8.38;41.88;101679.75;5086680;28;11042;-73
2022/03/11 00:32:41;;;;;;;;;10.00;10.00;;;;;8.39;42.12;101678.75;5075934;28;10816;-72
2022/03/11 00:35:09;;;;;;;;;12.50;11.00;;;;;8.37;41.75;101669.09;5075799;28;10781;-73
2022/03/11 00:37:36;;;;;;;;;14.50;11.00;;;;;8.43;41.84;101669.38;5072376;28;10998;-72
2022/03/11 00:40:04;;;;;;;;;13.00;10.00;;;;;8.33;41.90;101669.41;5088273;28;11677;-73
2022/03/11 00:42:31;;;;;;;;;16.00;15.00;;;;;8.30;42.10;101669.69;5071009;28;11121;-72
2022/03/11 00:44:57;;;;;;;;;11.50;10.75;;;;;8.41;41.88;101675.88;5071631;28;11142;-73
2022/03/11 00:47:24;;;;;;;;;13.25;11.50;;;;;8.36;42.06;101678.19;5070286;28;11062;-73
2022/03/11 00:49:50;;;;;;;;;13.50;13.50;;;;;8.23;42.08;101665.09;5073280;28;11051;-73
2022/03/11 00:52:16;;;;;;;;;14.25;11.50;;;;;8.29;42.07;101668.00;5054395;28;11248;-72
2022/03/11 00:54:43;;;;;;;;;14.75;13.25;;;;;8.21;41.69;101659.00;5075281;28;11134;-73
2022/03/11 00:57:10;;;;;;;;;14.50;11.50;;;;;8.24;42.00;101664.06;5070591;28;11005;-73
2022/03/11 00:59:36;;;;;;;;;13.00;10.00;;;;;8.25;42.25;101657.69;5082061;28;11070;-71
2022/03/11 01:02:03;;;;;;;;;10.75;10.25;;;;;8.27;42.37;101653.81;5068040;28;11140;-72
2022/03/11 01:04:29;;;;;;;;;14.75;14.75;;;;;8.25;42.57;101657.69;5083295;28;10821;-74
2022/03/11 01:06:56;;;;;;;;;15.25;11.50;;;;;8.13;42.16;101653.50;5092571;28;10921;-72
2022/03/11 01:09:22;;;;;;;;;15.50;15.50;;;;;8.14;42.36;101661.44;5081970;28;11014;-71
2022/03/11 01:11:48;;;;;;;;;11.00;11.00;;;;;8.06;42.54;101647.03;5071862;28;11229;-72
2022/03/11 01:14:15;;;;;;;;;13.00;11.25;;;;;8.09;42.34;101644.88;5076079;28;11137;-72
2022/03/11 01:16:41;;;;;;;;;12.00;10.00;;;;;8.06;42.83;101638.94;5061665;28;11204;-72
2022/03/11 01:19:08;;;;;;;;;18.75;17.00;;;;;8.01;42.42;101637.56;5068256;28;11767;-72
2022/03/11 01:21:35;;;;;;;;;19.50;17.00;;;;;7.88;42.62;101637.06;5071758;28;11167;-72
2022/03/11 01:24:01;;;;;;;;;17.25;15.00;;;;;7.89;42.88;101637.91;5077238;28;11235;-72
2022/03/11 01:26:27;;;;;;;;;16.25;13.00;;;;;7.86;42.88;101639.06;5090939;28;11547;-72
2022/03/11 01:28:54;;;;;;;;;17.75;13.00;;;;;7.87;42.75;101643.44;5098532;28;11088;-72
2022/03/11 01:31:20;;;;;;;;;16.50;14.25;;;;;7.91;42.66;101630.50;5068597;28;10969;-72
2022/03/11 01:33:47;;;;;;;;;19.00;17.75;;;;;7.83;42.84;101620.50;5080680;28;11239;-72
2022/03/11 01:36:14;;;;;;;;;15.00;13.00;;;;;7.82;42.66;101620.66;5107499;28;11485;-72
2022/03/11 01:38:41;;;;;;;;;22.00;17.00;;;;;7.81;43.05;101624.34;5087508;28;11251;-72
2022/03/11 01:41:09;;;;;;;;;21.75;19.75;;;;;7.85;42.54;101613.09;5069165;28;11492;-72
2022/03/11 01:43:58;;;;;;;;;17.25;15.25;;;;;7.66;42.94;101608.69;5071377;28;11499;-72
2022/03/11 01:46:24;;;;;;;;;17.50;12.00;;;;;7.73;43.13;101603.56;5070206;28;11546;-71
2022/03/11 01:48:51;;;;;;;;;22.50;15.75;;;;;7.66;43.06;101597.91;5076603;28;11973;-72
2022/03/11 01:51:17;;;;;;;;;23.25;21.00;;;;;7.52;43.32;101595.72;5091464;28;11452;-75
2022/03/11 01:53:45;;;;;;;;;12.75;10.25;;;;;7.64;43.01;101594.50;5086808;28;12208;-73
2022/03/11 01:56:13;;;;;;;;;14.50;11.00;;;;;7.63;43.46;101595.50;5068915;28;11214;-71
2022/03/11 01:58:41;;;;;;;;;20.25;17.75;;;;;7.52;43.58;101590.34;5083148;28;11600;-72
2022/03/11 02:01:09;;;;;;;;;19.00;14.50;;;;;7.62;43.53;101585.72;5077318;28;11472;-72
2022/03/11 02:03:36;;;;;;;;;18.00;16.25;;;;;7.58;43.51;101581.66;5071036;28;11462;-73
2022/03/11 02:06:04;;;;;;;;;17.00;17.00;;;;;7.55;43.45;101583.81;5071055;28;12199;-71
2022/03/11 02:08:31;;;;;;;;;10.75;10.75;;;;;7.44;43.73;101582.19;5071146;28;12278;-73
2022/03/11 02:10:58;;;;;;;;;15.25;14.75;;;;;7.35;43.95;101581.22;5069716;28;11220;-73
2022/03/11 02:13:25;;;;;;;;;13.75;12.75;;;;;7.36;43.80;101574.81;5072965;28;11500;-72
2022/03/11 02:15:52;;;;;;;;;12.75;12.50;;;;;7.35;43.94;101562.34;5091484;28;11455;-72
2022/03/11 02:18:19;;;;;;;;;23.75;18.00;;;;;7.24;44.16;101557.19;5088991;28;11541;-73
2022/03/11 02:20:48;;;;;;;;;16.25;15.00;;;;;7.22;43.97;101561.03;5060493;28;11490;-73
2022/03/11 02:23:17;;;;;;;;;13.00;12.75;;;;;7.20;44.38;101557.63;5069361;28;11555;-73
2022/03/11 02:25:43;;;;;;;;;16.50;16.50;;;;;7.17;44.16;101561.44;5061701;28;11506;-73
2022/03/11 02:28:10;;;;;;;;;19.50;18.75;;;;;7.13;44.37;101556.53;5070818;28;11488;-73
2022/03/11 02:30:36;;;;;;;;;23.25;18.00;;;;;7.04;44.27;101544.81;5090818;28;11471;-73
2022/03/11 02:33:03;;;;;;;;;16.00;15.25;;;;;7.03;44.48;101543.13;5078871;28;12183;-73
2022/03/11 02:35:29;;;;;;;;;21.00;15.75;;;;;7.09;44.50;101550.59;5052729;28;11569;-73
2022/03/11 02:37:56;;;;;;;;;19.00;13.25;;;;;7.06;44.31;101548.19;5069183;28;11548;-73
2022/03/11 02:40:22;;;;;;;;;17.75;13.00;;;;;6.90;44.65;101539.91;5066231;28;11500;-73
2022/03/11 02:42:49;;;;;;;;;12.25;11.25;;;;;6.97;44.51;101536.50;5049004;28;11552;-73
2022/03/11 02:45:15;;;;;;;;;14.50;13.75;;;;;6.95;44.62;101553.78;5084036;28;11256;-73
2022/03/11 02:47:42;;;;;;;;;17.25;15.50;;;;;6.98;44.75;101537.34;5080933;28;11488;-73
2022/03/11 02:50:09;;;;;;;;;17.75;15.25;;;;;6.99;44.60;101536.34;5068619;28;11536;-73
2022/03/11 02:52:36;;;;;;;;;19.00;17.00;;;;;6.89;44.75;101532.81;5068997;28;11502;-73
2022/03/11 02:55:02;;;;;;;;;15.50;13.50;;;;;6.88;44.84;101529.28;5065252;28;11555;-73
2022/03/11 02:57:29;;;;;;;;;29.00;19.00;;;;;6.90;44.81;101532.66;5066627;28;11469;-73
2022/03/11 02:59:55;;;;;;;;;21.75;16.00;;;;;6.78;44.75;101526.66;5071556;28;11492;-73
2022/03/11 03:02:22;;;;;;;;;18.50;18.00;;;;;6.75;45.17;101531.47;5068802;28;11549;-73
2022/03/11 03:04:49;;;;;;;;;15.25;15.25;;;;;6.71;45.27;101522.84;5087642;28;11453;-73
2022/03/11 03:07:16;;;;;;;;;20.75;20.75;;;;;6.55;45.31;101529.84;5068646;28;11546;-73
2022/03/11 03:09:42;;;;;;;;;24.50;18.50;;;;;6.54;46.00;101523.59;5076478;28;12193;-73
2022/03/11 03:12:10;;;;;;;;;20.50;17.25;;;;;6.51;45.55;101520.38;5054209;28;11638;-72
2022/03/11 03:14:37;;;;;;;;;21.25;19.50;;;;;6.61;45.48;101523.88;5069428;28;11479;-73
2022/03/11 03:17:05;;;;;;;;;18.00;18.00;;;;;6.49;45.73;101520.50;5071015;28;11575;-73
2022/03/11 03:19:32;;;;;;;;;16.00;13.00;;;;;6.48;45.72;101521.50;5067851;28;11475;-72
2022/03/11 03:22:00;;;;;;;;;16.25;14.00;;;;;6.55;45.82;101519.91;5063757;28;11478;-72
2022/03/11 03:24:26;;;;;;;;;15.50;13.25;;;;;6.48;45.82;101513.44;5070353;28;11462;-73
2022/03/11 03:26:54;;;;;;;;;25.25;22.50;;;;;6.47;45.71;101520.66;5070156;28;11710;-73
2022/03/11 03:29:21;;;;;;;;;19.50;17.25;;;;;6.45;46.00;101522.66;5095290;28;11476;-72
2022/03/11 03:31:48;;;;;;;;;22.50;19.75;;;;;6.37;46.13;101517.13;5088116;28;11439;-73
2022/03/11 03:34:14;;;;;;;;;25.25;18.25;;;;;6.33;46.38;101517.56;5069851;28;11570;-72
2022/03/11 03:36:41;;;;;;;;;24.50;20.25;;;;;6.39;46.12;101512.44;5070049;28;11524;-73
2022/03/11 03:39:08;;;;;;;;;18.25;17.75;;;;;6.35;46.46;101502.97;5077480;28;11468;-72
2022/03/11 03:41:34;;;;;;;;;25.25;22.25;;;;;6.38;46.07;101509.91;5077829;28;11466;-73
2022/03/11 03:44:03;;;;;;;;;30.00;22.00;;;;;6.29;46.05;101508.94;5076576;28;11542;-73
2022/03/11 03:46:29;;;;;;;;;31.50;23.00;;;;;6.26;46.19;101506.56;5077273;28;11616;-73
2022/03/11 03:48:56;;;;;;;;;18.25;16.75;;;;;6.34;46.28;101509.34;5069807;28;11513;-72
2022/03/11 03:51:22;;;;;;;;;19.00;17.00;;;;;6.27;46.12;101508.25;5067873;28;11520;-72
2022/03/11 03:53:49;;;;;;;;;26.00;20.00;;;;;6.35;46.41;101508.38;5073959;28;11536;-73
2022/03/11 03:56:15;;;;;;;;;22.50;19.75;;;;;6.22;46.78;101507.00;5067875;28;11553;-73
2022/03/11 03:58:42;;;;;;;;;26.75;20.25;;;;;6.23;46.32;101506.84;5068831;28;11522;-73
2022/03/11 04:01:08;;;;;;;;;20.75;20.00;;;;;6.24;46.63;101502.31;5066329;28;11520;-70
2022/03/11 04:03:36;;;;;;;;;24.75;21.75;;;;;6.18;46.44;101493.81;5063376;28;11462;-73
2022/03/11 04:06:02;;;;;;;;;21.25;19.50;;;;;6.11;46.72;101499.91;5057734;28;11610;-72
2022/03/11 04:08:30;;;;;;;;;22.25;20.50;;;;;6.07;47.17;101491.28;5073620;28;11515;-73
2022/03/11 04:10:56;;;;;;;;;27.25;20.00;;;;;6.15;46.99;101499.47;5093463;28;11532;-71
2022/03/11 04:13:23;;;;;;;;;19.00;18.00;;;;;6.12;46.42;101499.78;5091644;28;11475;-72
2022/03/11 04:15:49;;;;;;;;;20.00;17.75;;;;;6.13;46.91;101495.25;5072034;28;11558;-73
2022/03/11 04:18:16;;;;;;;;;11.50;9.25;;;;;5.98;47.28;101496.69;5071568;28;11488;-73
2022/03/11 04:20:43;;;;;;;;;19.75;19.75;;;;;6.00;47.42;101495.56;5077232;28;11443;-73
2022/03/11 04:23:09;;;;;;;;;21.00;19.00;;;;;6.01;47.11;101493.72;5090535;22;11482;-68
2022/03/11 04:25:36;;;;;;;;;21.50;19.50;;;;;6.05;47.34;101479.84;5113199;28;11674;-70
2022/03/11 04:28:02;;;;;;;;;16.25;13.00;;;;;5.99;47.55;101490.34;5112892;28;11459;-70
2022/03/11 04:30:29;;;;;;;;;24.75;20.75;;;;;5.98;47.39;101472.50;5092923;28;11443;-69
2022/03/11 04:32:55;;;;;;;;;20.00;18.50;;;;;5.95;47.43;101475.47;5088354;28;11472;-72
2022/03/11 04:35:22;;;;;;;;;21.50;18.50;;;;;5.96;47.54;101471.81;5089667;28;11606;-72
2022/03/11 04:37:48;;;;;;;;;18.50;14.25;;;;;5.83;47.84;101472.06;5085095;28;11599;-72
2022/03/11 04:40:15;;;;;;;;;25.25;22.50;;;;;5.83;47.98;101466.69;5093079;28;11547;-70
2022/03/11 04:42:41;;;;;;;;;22.50;21.00;;;;;5.78;48.30;101469.81;5093573;28;11534;-72
2022/03/11 04:45:08;;;;;;;;;23.00;16.00;;;;;5.74;48.29;101465.72;5092042;28;11515;-71
2022/03/11 04:47:35;;;;;;;;;19.00;19.00;;;;;5.79;47.91;101465.28;5081259;28;11531;-72
2022/03/11 04:50:02;;;;;;;;;20.25;13.50;;;;;5.70;48.42;101461.63;5091056;28;11650;-71
2022/03/11 04:52:28;;;;;;;;;20.00;19.00;;;;;5.56;48.92;101467.41;5093855;28;11463;-71
2022/03/11 04:54:55;;;;;;;;;18.00;17.25;;;;;5.58;48.93;101462.72;5090532;28;11557;-72
2022/03/11 04:57:21;;;;;;;;;29.50;22.25;;;;;5.50;49.02;101460.75;5092003;28;11448;-68
2022/03/11 04:59:47;;;;;;;;;21.25;18.50;;;;;5.57;48.55;101461.03;5108366;28;11499;-71
2022/03/11 05:02:23;;;;;;;;;19.25;18.00;;;;;5.52;49.24;101466.00;5092391;28;11528;-70
2022/03/11 05:04:50;;;;;;;;;25.75;20.25;;;;;5.49;49.19;101471.66;5092291;28;11504;-70
2022/03/11 05:07:16;;;;;;;;;27.50;21.75;;;;;5.43;49.49;101459.59;5092524;28;11548;-68
2022/03/11 05:09:43;;;;;;;;;20.50;18.25;;;;;5.40;49.67;101457.22;5088360;28;11582;-68
2022/03/11 05:12:09;;;;;;;;;23.00;17.25;;;;;5.46;49.21;101454.00;5092131;28;11659;-68
2022/03/11 05:14:36;;;;;;;;;24.00;21.75;;;;;5.42;49.34;101457.06;5092193;28;12285;-69
2022/03/11 05:17:03;;;;;;;;;15.75;15.50;;;;;5.52;49.28;101453.41;5092372;28;12248;-68
2022/03/11 05:19:30;;;;;;;;;24.25;19.50;;;;;5.45;49.77;101451.41;5091659;28;11464;-67
2022/03/11 05:21:56;;;;;;;;;17.75;17.75;;;;;5.43;49.76;101450.72;5091871;28;11548;-66
2022/03/11 05:24:23;;;;;;;;;23.00;18.00;;;;;5.40;49.63;101457.22;5090195;28;11575;-69
2022/03/11 05:26:49;;;;;;;;;21.50;18.00;;;;;5.41;49.99;101445.47;5092107;28;11517;-66
2022/03/11 05:29:16;;;;;;;;;20.75;19.50;;;;;5.43;49.46;101439.97;5092187;28;11545;-66
2022/03/11 05:31:43;;;;;;;;;20.50;18.00;;;;;5.35;49.95;101446.03;5092332;28;11532;-67
2022/03/11 05:34:09;;;;;;;;;19.50;17.75;;;;;5.45;49.78;101448.72;5091891;28;11501;-68
2022/03/11 05:36:36;;;;;;;;;21.25;20.00;;;;;5.37;50.16;101449.44;5092103;28;11564;-68
2022/03/11 05:39:02;;;;;;;;;19.50;18.25;;;;;5.49;49.66;101445.63;5090862;28;11458;-67
2022/03/11 05:41:29;;;;;;;;;20.25;16.25;;;;;5.47;49.67;101449.47;5075146;28;11543;-68
2022/03/11 05:43:55;;;;;;;;;23.25;19.25;;;;;5.37;49.46;101438.69;5077948;28;11529;-67
2022/03/11 05:46:22;;;;;;;;;17.25;16.00;;;;;5.40;49.53;101434.88;5090218;28;11594;-66
2022/03/11 05:48:48;;;;;;;;;21.25;19.25;;;;;5.38;49.76;101429.66;5101865;27;11529;-67
2022/03/11 05:51:15;;;;;;;;;21.00;18.50;;;;;5.43;49.70;101439.97;5090238;28;11530;-68
2022/03/11 05:53:41;;;;;;;;;22.25;19.00;;;;;5.41;49.64;101437.41;5088826;28;11526;-68
2022/03/11 05:56:08;;;;;;;;;21.00;16.25;;;;;5.39;49.80;101438.56;5071667;28;11535;-67
2022/03/11 05:58:34;;;;;;;;;24.00;21.25;;;;;5.30;49.79;101432.19;5087102;28;11536;-67
2022/03/11 06:01:01;;;;;;;;;22.00;18.75;;;;;5.38;49.76;101428.81;5090629;28;11552;-67
2022/03/11 06:03:28;;;;;;;;;25.25;23.25;;;;;5.33;49.98;101428.38;5091135;28;11603;-67
2022/03/11 06:05:54;;;;;;;;;22.50;17.25;;;;;5.36;49.76;101423.56;5091371;28;11542;-67
2022/03/11 06:08:22;;;;;;;;;21.00;15.25;;;;;5.44;49.42;101425.53;5106793;28;11523;-68
2022/03/11 06:10:49;;;;;;;;;15.00;14.25;;;;;5.33;50.17;101415.81;5089955;28;11539;-68
2022/03/11 06:13:15;;;;;;;;;17.50;16.25;;;;;5.32;49.95;101418.63;5089729;28;11513;-68
2022/03/11 06:15:42;;;;;;;;;16.75;14.75;;;;;5.37;49.87;101414.53;5089909;28;11528;-69
2022/03/11 06:18:10;;;;;;;;;22.75;17.75;;;;;5.42;49.82;101420.31;5089368;28;11538;-68
2022/03/11 06:20:36;;;;;;;;;19.25;15.00;;;;;5.47;49.84;101419.94;5087148;28;11541;-69
2022/03/11 06:23:03;;;;;;;;;17.25;15.50;;;;;5.48;49.84;101421.63;5090332;28;11466;-68
2022/03/11 06:25:29;;;;;;;;;23.50;18.75;;;;;5.49;49.87;101424.16;5090765;28;11447;-68
2022/03/11 06:27:56;;;;;;;;;27.25;22.00;;;;;5.50;49.92;101416.94;5085346;28;12279;-69
2022/03/11 06:30:28;;;;;;;;;26.00;20.00;;;;;6.05;48.90;101420.72;5088543;28;12370;-69
2022/03/11 06:32:55;;;;;;;;;19.00;18.00;;;;;6.87;46.89;101419.94;5090588;28;11568;-70
2022/03/11 06:35:21;;;;;;;;;28.25;25.75;;;;;7.32;45.63;101429.84;5084880;28;11568;-71
2022/03/11 06:37:51;;;;;;;;;18.75;18.50;;;;;7.77;44.46;101418.97;5090746;28;11542;-68
2022/03/11 06:40:19;;;;;;;;;20.00;18.00;;;;;8.38;43.01;101417.19;5077575;28;11478;-70
2022/03/11 06:42:48;;;;;;;;;20.50;19.00;;;;;8.60;42.45;101422.88;5089677;28;11514;-66
2022/03/11 06:45:16;;;;;;;;;24.50;20.00;;;;;8.44;42.31;101419.25;5090449;28;11604;-70
2022/03/11 06:47:44;;;;;;;;;10.50;10.50;;;;;8.24;42.87;101430.25;5090537;28;11454;-68
2022/03/11 06:50:11;;;;;;;;;23.25;17.50;;;;;7.80;43.54;101418.66;5090487;28;11462;-71
2022/03/11 06:52:37;;;;;;;;;20.25;19.00;;;;;7.57;44.67;101423.69;5089439;28;11464;-71
2022/03/11 06:55:05;;;;;;;;;24.00;16.75;;;;;7.39;44.66;101417.44;5088470;28;11566;-71
2022/03/11 06:57:32;;;;;;;;;17.00;14.75;;;;;7.39;45.00;101420.13;5092938;28;11518;-71
2022/03/11 06:59:58;;;;;;;;;19.75;18.75;;;;;8.38;43.65;101415.34;5084575;28;12217;-71
2022/03/11 07:02:25;;;;;;;;;21.25;15.50;;;;;8.81;42.31;101414.34;5122505;27;11540;-71
2022/03/11 07:04:52;;;;;;;;;18.00;18.00;;;;;9.02;41.56;101418.47;5107414;27;11467;-70
2022/03/11 07:07:19;;;;;;;;;17.75;12.50;;;;;9.27;41.29;101409.41;5090488;28;11459;-72
2022/03/11 07:09:46;;;;;;;;;16.50;13.50;;;;;9.23;40.84;101408.91;5082888;28;11472;-71
2022/03/11 07:12:12;;;;;;;;;23.00;20.25;;;;;9.00;41.31;101404.28;5089885;28;11513;-70
2022/03/11 07:14:39;;;;;;;;;17.00;16.50;;;;;9.03;41.21;101402.09;5086652;28;11554;-71
2022/03/11 07:17:06;;;;;;;;;17.00;16.25;;;;;9.09;41.51;101404.13;5088975;28;12287;-71
2022/03/11 07:19:33;;;;;;;;;20.00;18.50;;;;;8.68;42.68;101400.47;5089936;28;12191;-69
2022/03/11 07:22:03;;;;;;;;;22.75;17.00;;;;;8.28;42.86;101407.34;5087676;28;11467;-71
2022/03/11 07:24:31;;;;;;;;;15.75;15.75;;;;;8.39;42.90;101405.38;5086971;28;11465;-71
2022/03/11 07:26:58;;;;;;;;;20.75;17.00;;;;;8.62;42.72;101393.84;5088848;28;11257;-72
2022/03/11 07:29:25;;;;;;;;;21.50;13.25;;;;;8.81;42.75;101394.59;5088640;28;11232;-71
2022/03/11 07:31:52;;;;;;;;;21.00;16.00;;;;;8.67;42.79;101398.75;5086303;28;11228;-70
2022/03/11 07:34:20;;;;;;;;;20.00;17.25;;;;;8.71;42.52;101389.34;5089622;28;11466;-71
2022/03/11 07:36:47;;;;;;;;;24.25;20.75;;;;;8.85;41.94;101388.72;5089999;28;11468;-70
2022/03/11 07:39:13;;;;;;;;;19.75;15.50;;;;;8.63;42.73;101409.03;5089748;28;11500;-71
2022/03/11 07:41:40;;;;;;;;;13.25;13.25;;;;;8.60;42.39;101400.44;5089988;28;11464;-71
2022/03/11 07:44:06;;;;;;;;;18.75;18.50;;;;;8.73;42.71;101397.28;5093134;28;11101;-70
2022/03/11 07:46:40;;;;;;;;;27.50;22.00;;;;;8.59;42.63;101383.41;5107449;28;11426;-71
2022/03/11 07:49:06;;;;;;;;;16.00;14.50;;;;;8.80;42.41;101384.81;5093856;28;11259;-70
2022/03/11 07:51:33;;;;;;;;;26.25;20.00;;;;;8.93;42.82;101383.34;5094026;28;11267;-69
2022/03/11 07:53:59;;;;;;;;;23.75;16.25;;;;;8.91;42.41;101382.66;5093912;28;11467;-73
2022/03/11 07:56:26;;;;;;;;;18.50;18.00;;;;;9.00;42.21;101385.38;5093945;28;12261;-70
2022/03/11 07:58:59;;;;;;;;;18.25;17.25;;;;;8.94;42.27;101393.16;5089640;28;11476;-71
2022/03/11 08:01:29;;;;;;;;;20.75;17.50;;;;;9.13;42.22;101370.38;5089190;28;11248;-72
2022/03/11 08:04:08;;;;;;;;;23.00;21.00;;;;;9.25;41.80;101370.91;5086358;28;11551;-72
2022/03/11 08:08:38;;;;;;;;;21.75;15.00;;;;;9.40;41.77;101381.88;5090082;28;11441;-71
2022/03/11 08:10:45;;;;;;;;;21.75;20.25;;;;;9.72;41.73;101375.66;5073349;28;11536;-70
2022/03/11 08:13:31;;;;;;;;;22.75;20.25;;;;;9.62;41.26;101367.69;5088395;28;11470;-72
2022/03/11 08:15:58;;;;;;;;;19.50;16.25;;;;;9.91;41.04;101369.00;5080659;28;11490;-69
2022/03/11 08:18:25;;;;;;;;;25.25;19.25;;;;;10.12;40.57;101366.59;5076727;28;12252;-72
2022/03/11 08:20:51;;;;;;;;;20.25;16.00;;;;;10.20;40.41;101365.75;5076700;28;11268;-68
2022/03/11 08:23:18;;;;;;;;;19.50;19.50;;;;;10.35;40.15;101358.63;5078992;28;11233;-71
2022/03/11 08:25:45;;;;;;;;;26.50;21.75;;;;;10.64;39.63;101357.97;5082335;28;11461;-71
2022/03/11 08:28:13;;;;;;;;;18.25;14.00;;;;;10.83;39.29;101356.69;5106582;27;11557;-70
2022/03/11 08:30:41;;;;;;;;;23.25;22.25;;;;;10.91;38.95;101362.94;5083055;28;11166;-70
2022/03/11 08:33:10;;;;;;;;;21.25;19.75;;;;;10.79;39.24;101354.34;5091235;28;12003;-69
2022/03/11 08:35:57;;;;;;;;;19.50;19.00;;;;;10.81;39.25;101350.63;5103760;28;11039;-72
2022/03/11 08:38:37;;;;;;;;;19.50;14.00;;;;;11.01;38.78;101351.84;5088930;28;10937;-71
2022/03/11 08:41:06;;;;;;;;;19.50;18.25;;;;;11.04;38.46;101341.50;5088419;28;11393;-71
2022/03/11 08:43:34;;;;;;;;;25.25;24.75;;;;;11.02;38.60;101335.41;5084978;28;11262;-70
2022/03/11 08:46:01;;;;;;;;;18.25;14.50;;;;;11.32;38.82;101333.66;5088756;28;11467;-70
2022/03/11 08:48:28;;;;;;;;;22.25;19.75;;;;;11.59;37.97;101332.25;5091308;28;10720;-71
2022/03/11 08:50:54;;;;;;;;;14.75;14.75;;;;;11.77;37.60;101333.78;5079702;28;11102;-70
2022/03/11 08:53:21;;;;;;;;;14.75;13.25;;;;;11.89;37.80;101340.47;5093523;28;11646;-71
2022/03/11 08:55:48;;;;;;;;;22.25;21.50;;;;;11.88;37.73;101322.50;5080545;28;11518;-71
2022/03/11 08:58:14;;;;;;;;;19.50;16.25;;;;;12.40;37.18;101321.59;5078902;28;10911;-71
2022/03/11 09:00:46;;;;;;;;;23.25;19.00;;;;;12.57;36.08;101318.44;5077669;28;10810;-71
2022/03/11 09:03:12;;;;;;;;;23.25;19.00;;;;;12.73;36.45;101321.97;5072988;28;10776;-67
2022/03/11 09:05:40;;;;;;;;;20.50;17.25;;;;;13.14;36.01;101320.34;5078249;28;10636;-71
2022/03/11 09:08:07;;;;;;;;;24.00;19.75;;;;;13.08;35.84;101320.25;5096311;28;10775;-71
2022/03/11 09:10:34;;;;;;;;;21.50;20.25;;;;;12.87;35.73;101318.34;5083292;28;10612;-72
2022/03/11 09:13:02;;;;;;;;;26.00;22.25;;;;;12.98;35.52;101306.16;5078622;28;10534;-68
2022/03/11 09:15:28;;;;;;;;;25.25;23.00;;;;;13.10;34.99;101316.31;5077926;28;10699;-70
2022/03/11 09:17:55;;;;;;;;;28.75;24.50;;;;;12.87;35.51;101294.75;5079675;28;11466;-69
2022/03/11 09:20:23;;;;;;;;;23.50;21.00;;;;;13.24;35.19;101292.84;5075662;28;10552;-72
2022/03/11 09:22:58;;;;;;;;;20.25;18.50;;;;;13.12;35.38;101307.97;5078743;28;11404;-71
2022/03/11 09:25:24;;;;;;;;;28.25;15.25;;;;;13.39;35.19;101298.22;5074549;28;10891;-71
2022/03/11 09:27:51;;;;;;;;;24.50;21.00;;;;;13.11;36.06;101298.97;5080955;28;10621;-70
2022/03/11 09:30:17;;;;;;;;;22.00;20.50;;;;;13.16;35.63;101301.97;5075368;28;10701;-71
2022/03/11 09:32:44;;;;;;;;;26.50;21.00;;;;;13.56;35.34;101288.72;5095723;28;11237;-72
2022/03/11 09:35:12;;;;;;;;;20.75;19.00;;;;;13.77;35.00;101288.66;5078829;28;10545;-72
2022/03/11 09:37:39;;;;;;;;;23.25;19.50;;;;;13.72;35.20;101280.28;5076939;28;10435;-73
2022/03/11 09:40:08;;;;;;;;;23.25;19.50;;;;;13.88;35.12;101292.72;5081202;28;10642;-68
2022/03/11 09:42:35;;;;;;;;;21.75;19.25;;;;;13.61;35.11;101288.97;5077405;28;10476;-68
2022/03/11 09:45:03;;;;;;;;;24.75;23.25;;;;;13.89;35.04;101274.53;5076583;28;10492;-71
2022/03/11 09:47:30;;;;;;;;;21.75;21.50;;;;;13.62;35.18;101277.03;5107270;27;10586;-72
2022/03/11 09:49:57;;;;;;;;;19.25;18.50;;;;;13.74;35.66;101269.19;5087695;28;10380;-73
2022/03/11 09:52:24;;;;;;;;;25.50;21.00;;;;;13.92;35.04;101274.13;5089282;28;10966;-71
2022/03/11 09:54:51;;;;;;;;;24.25;23.75;;;;;14.01;34.58;101276.47;5104514;28;10399;-72
2022/03/11 09:57:23;;;;;;;;;29.25;21.75;;;;;14.17;34.93;101267.13;5083744;28;10754;-72
2022/03/11 09:59:51;;;;;;;;;25.50;24.75;;;;;13.82;34.70;101264.41;5080727;28;10960;-72
2022/03/11 10:02:23;;;;;;;;;22.00;18.50;;;;;13.99;34.75;101270.38;5083505;28;10551;-71
2022/03/11 10:04:52;;;;;;;;;29.75;23.25;;;;;13.71;35.48;101261.41;5086244;28;10351;-71
2022/03/11 10:07:39;;;;;;;;;21.00;20.25;;;;;13.95;35.22;101255.50;5087902;28;10490;-71
2022/03/11 10:10:14;;;;;;;;;23.00;23.00;;;;;14.02;35.15;101253.63;5087779;28;10526;-71
2022/03/11 10:13:00;;;;;;;;;29.25;24.50;;;;;13.83;35.54;101249.75;5104014;28;11004;-72
2022/03/11 10:15:29;;;;;;;;;23.75;20.50;;;;;13.90;35.60;101259.88;5082098;28;10703;-69
2022/03/11 10:17:56;;;;;;;;;20.25;13.75;;;;;13.96;35.50;101259.06;5087413;28;10341;-72
2022/03/11 10:20:23;;;;;;;;;22.50;19.25;;;;;13.95;35.96;101251.94;5086570;28;10373;-72
2022/03/11 10:22:50;;;;;;;;;25.50;22.00;;;;;14.15;35.99;101250.16;5088428;28;10303;-70
2022/03/11 10:25:20;;;;;;;;;20.00;17.25;;;;;14.31;35.87;101241.63;5088057;28;10391;-68
2022/03/11 10:27:59;;;;;;;;;21.00;20.50;;;;;14.53;35.75;101245.09;5078033;28;10234;-67
2022/03/11 10:30:26;;;;;;;;;24.00;23.00;;;;;14.11;35.85;101230.63;5085377;28;10391;-67
2022/03/11 10:32:54;;;;;;;;;20.50;19.25;;;;;14.12;36.21;101223.31;5085482;28;10331;-67
2022/03/11 10:35:29;;;;;;;;;29.00;23.75;;;;;14.26;36.37;101219.59;5086294;28;10538;-68
2022/03/11 10:38:10;;;;;;;;;21.25;18.00;;;;;14.28;36.76;101222.97;5074801;28;10382;-69
2022/03/11 10:40:42;;;;;;;;;21.00;18.50;;;;;14.27;36.31;101209.56;5073609;28;10297;-70
2022/03/11 10:43:10;;;;;;;;;19.50;16.50;;;;;14.11;36.93;101197.97;5073172;28;10613;-68
2022/03/11 10:45:50;;;;;;;;;19.75;17.50;;;;;14.57;36.27;101210.09;5075190;28;10205;-68
2022/03/11 10:48:18;;;;;;;;;21.25;19.25;;;;;14.69;36.04;101192.09;5079185;28;10894;-68
2022/03/11 10:50:45;;;;;;;;;21.25;20.00;;;;;14.58;35.90;101192.69;5075267;28;10245;-68
2022/03/11 10:53:12;;;;;;;;;27.25;24.75;;;;;14.52;36.33;101201.69;5075494;28;11062;-68
2022/03/11 10:55:41;;;;;;;;;21.00;19.00;;;;;14.67;36.49;101199.66;5073766;28;10575;-68
2022/03/11 10:58:09;;;;;;;;;21.50;19.75;;;;;14.58;36.43;101207.16;5085191;28;10206;-67
2022/03/11 11:00:39;;;;;;;;;23.25;20.75;;;;;14.56;36.66;101208.41;5088148;28;10221;-68
2022/03/11 11:03:08;;;;;;;;;26.50;21.50;;;;;14.50;36.48;101196.44;5087514;28;10320;-68
2022/03/11 11:05:36;;;;;;;;;26.50;26.00;;;;;14.53;36.97;101204.22;5073391;28;10437;-69
2022/03/11 11:08:05;;;;;;;;;29.25;20.00;;;;;14.78;36.52;101188.13;5072288;28;10416;-67
2022/03/11 11:10:34;;;;;;;;;25.25;24.75;;;;;14.73;36.53;101198.81;5078616;28;10339;-70
2022/03/11 11:13:01;;;;;;;;;17.00;15.00;;;;;14.52;36.64;101191.63;5074376;28;10238;-69
2022/03/11 11:15:28;;;;;;;;;27.00;22.75;;;;;14.50;36.58;101188.28;5080807;28;11465;-69
2022/03/11 11:18:00;;;;;;;;;23.00;18.25;;;;;14.50;36.90;101191.00;5075603;28;10715;-69